SKCLSKCG

Guest
Details From SKCL - ALFONSO BONILLA ARAGON INTL
To SKCG - RAFAEL NUNEZ
Flight Number -
Tags generated
Created
Modified
Stats Distance 421 nm / 781 km
Max Altitude 35,000 ft / 10,668 m
Waypoints 10
Social Downloads 0
Likes 0
Share VATSIM

Download

Looking for another format? Having issues loading an existing format? Contact us
Advertisement - Login to hide

Notes

Basic altitude profile: - Ascent Rate: 2500ft/min - Ascent Speed: 250kts - Cruise Altitude: 35000ft - Cruise Speed: 420kts - Descent Rate: 1500ft/min - Descent Speed: 250kts Options: - Use NATs: yes - Use PACOTS: yes - Use low airways: yes - Use high airways: yes

Route

SKCL DILAR W37 MTR SKCG

ID Type Via Altitude Latitude Longitude Leg Dist Tot Dist Heading (true) Name
O SKCL APT - 0 ft / 0 m 3.54322˚ -76.38159˚ - 0 nm - ALFONSO BONILLA ARAGON INTL
DILAR FIX - 35,000 ft / 10,668 m 5.14111˚ -75.85722˚ 100 nm 100 nm 18° / 18° -
PUPIR FIX W37 (AWY-LO) 24,500 ft / 7,468 m 5.73944˚ -75.89306˚ 35 nm 136 nm 357° / 357° -
NENER FIX W37 (AWY-LO) 24,500 ft / 7,468 m 6.33028˚ -75.92333˚ 35 nm 172 nm 357° / 357° -
PEQUE FIX W37 (AWY-LO) 24,500 ft / 7,468 m 6.73667˚ -75.95306˚ 24 nm 196 nm 356° / 356° -
LAURA FIX W37 (AWY-LO) 23,500 ft / 7,163 m 7.49556˚ -75.90389˚ 45 nm 242 nm 4° / 4° -
KALIR FIX W37 (AWY-LO) 23,500 ft / 7,163 m 8.00833˚ -75.87056˚ 30 nm 273 nm 4° / 4° -
LUCIA FIX W37 (AWY-LO) 23,500 ft / 7,163 m 8.41444˚ -75.84389˚ 24 nm 297 nm 4° / 4° -
MTR VOR W37 (AWY-LO) 21,200 ft / 6,462 m 8.81556˚ -75.81778˚ 24 nm 322 nm 4° / 4° MONTERIA VOR-DME
O SKCG APT - 0 ft / 0 m 10.44238˚ -75.51296˚ 99 nm 421 nm 10° / 10° RAFAEL NUNEZ

Altitude Profile

Advertisement - Login to hide

Weather


0- 5 10 15 20 25 30 35+ Temperature / ° C

Clouds and Precipitation
Forecast for 2017-12-14 06:00 UTC. Updated 2 hours ago

Ground ~20,000 ft ~40,000 ft Winds

SKCL

Details ICAO SKCL (CLO)
Name ALFONSO BONILLA ARAGON INTL
Region Colombia
Timezone America/Bogota (UTC-5.0)
Stats Elevation 3,162 ft / 964 m (AMSL)
Location 3.543221° -76.381587°
Runways 1
Magnetic Variation 5.582° W

METAR

SKCL 140400Z 03005KT 9999 FEW040 20/19 A2998

Decode

TAF

Not found

Departure Runways

ID Width Length Bearing (true) Bearing (mag) Surface Threshold Offset Overrun Length
01 148 ft / 45 m 9,869 ft / 3,008 m 9.91° 15.49° Asphalt 0 ft / 0 m 50 ft / 15 m
19 148 ft / 45 m 9,869 ft / 3,008 m 189.91° 195.49° Asphalt 0 ft / 0 m 65 ft / 20 m

SKCG

Details ICAO SKCG (CTG)
Name RAFAEL NUNEZ
Region Colombia
Timezone America/Bogota (UTC-5.0)
Stats Elevation 4 ft / 1 m (AMSL)
Location 10.442379° -75.512961°
Runways 1
Magnetic Variation 7.204° W

METAR

SKCG 140400Z 03004KT CAVOK 26/24 A2988

Decode

TAF

Not found

Destination Runways

ID Width Length Bearing (true) Bearing (mag) Surface Threshold Offset Overrun Length
01 148 ft / 45 m 8,584 ft / 2,616 m 2.31° 9.51° Asphalt 0 ft / 0 m 180 ft / 55 m
19 148 ft / 45 m 8,584 ft / 2,616 m 182.31° 189.51° Asphalt 190 ft / 58 m 0 ft / 0 m

Popular Alternatives